createdAt,value
2024-01-01T00:00:23.753Z,214.23
2024-01-01T00:02:51.593Z,224.53
2024-01-01T00:05:20.819Z,225.87
2024-01-01T00:07:51.900Z,217.40
2024-01-01T00:10:20.199Z,229.70
2024-01-01T00:12:47.949Z,225.93
2024-01-01T00:15:16.007Z,245.13
2024-01-01T00:17:43.751Z,229.50
2024-01-01T00:20:12.382Z,243.40
2024-01-01T00:22:42.752Z,236.93
2024-01-01T00:25:10.860Z,234.57
2024-01-01T00:27:38.639Z,228.13
2024-01-01T00:30:07.709Z,223.00
2024-01-01T00:32:37.854Z,235.83
2024-01-01T00:35:06.562Z,219.23
2024-01-01T00:37:34.470Z,219.07
2024-01-01T00:40:07.194Z,219.27
2024-01-01T00:42:35.333Z,220.90
2024-01-01T00:45:03.441Z,212.37
2024-01-01T00:47:31.376Z,205.47
2024-01-01T00:49:59.363Z,204.80
2024-01-01T00:52:27.190Z,203.93
2024-01-01T00:54:55.095Z,202.00
2024-01-01T00:57:24.224Z,205.73
2024-01-01T00:59:52.040Z,211.40
2024-01-01T01:02:22.168Z,210.43
2024-01-01T01:04:59.571Z,214.23
2024-01-01T01:07:34.178Z,221.43
2024-01-01T01:10:02.079Z,220.87
2024-01-01T01:12:31.232Z,214.30
2024-01-01T01:14:58.971Z,222.53
2024-01-01T01:17:26.752Z,220.60
2024-01-01T01:19:54.527Z,228.10
2024-01-01T01:22:22.269Z,215.60
2024-01-01T01:24:49.962Z,211.63
2024-01-01T01:27:17.700Z,202.63
2024-01-01T01:29:46.781Z,211.37
2024-01-01T01:32:14.520Z,212.30
2024-01-01T01:34:42.312Z,217.73
2024-01-01T01:37:10.015Z,221.97
2024-01-01T01:39:37.797Z,215.50
2024-01-01T01:42:06.026Z,203.43
2024-01-01T01:44:34.585Z,206.23
2024-01-01T01:47:04.224Z,214.70
2024-01-01T01:49:33.406Z,211.23
2024-01-01T01:52:04.476Z,208.70
2024-01-01T01:54:35.583Z,219.30
2024-01-01T01:57:03.732Z,219.20
2024-01-01T01:59:32.157Z,219.00
2024-01-01T02:02:00.363Z,220.33
2024-01-01T02:04:29.505Z,218.80
2024-01-01T02:06:57.233Z,220.90
2024-01-01T02:09:24.996Z,228.03
2024-01-01T02:11:52.798Z,236.50
2024-01-01T02:14:20.682Z,230.30
2024-01-01T02:16:49.393Z,231.27
2024-01-01T02:19:21.285Z,228.20
2024-01-01T02:21:51.662Z,228.50
2024-01-01T02:24:21.859Z,230.17
2024-01-01T02:26:50.277Z,219.67
2024-01-01T02:29:18.794Z,220.20
2024-01-01T02:31:47.675Z,221.97
2024-01-01T02:34:15.720Z,216.70
2024-01-01T02:36:43.680Z,220.83
2024-01-01T02:39:12.100Z,223.67
2024-01-01T02:41:41.462Z,219.37
2024-01-01T02:44:09.440Z,224.63
2024-01-01T02:46:37.484Z,222.47
2024-01-01T02:49:05.583Z,227.30
2024-01-01T02:51:33.469Z,220.70
2024-01-01T02:54:01.229Z,222.60
2024-01-01T02:56:29.224Z,226.83
2024-01-01T02:58:58.522Z,227.63
2024-01-01T03:01:26.273Z,226.63
2024-01-01T03:03:54.105Z,219.40
2024-01-01T03:06:22.161Z,221.37
2024-01-01T03:08:50.049Z,216.03
2024-01-01T03:11:18.119Z,204.53
2024-01-01T03:13:45.900Z,204.00
2024-01-01T03:16:16.437Z,204.30
2024-01-01T03:18:44.207Z,201.53
2024-01-01T03:21:11.986Z,202.03
2024-01-01T03:23:39.698Z,206.57
2024-01-01T03:26:07.532Z,202.70
2024-01-01T03:28:35.313Z,193.80
2024-01-01T03:31:03.144Z,199.57
2024-01-01T03:33:35.287Z,200.17
2024-01-01T03:36:03.087Z,203.30
2024-01-01T03:38:30.806Z,203.70
2024-01-01T03:40:58.653Z,204.40
2024-01-01T03:43:26.548Z,203.23
2024-01-01T03:45:54.214Z,209.30
2024-01-01T03:48:22.094Z,201.77
2024-01-01T03:50:51.741Z,209.87
2024-01-01T03:53:19.694Z,207.93
2024-01-01T03:55:47.434Z,219.13
2024-01-01T03:58:15.186Z,213.33
2024-01-01T04:00:42.908Z,218.07
2024-01-01T04:03:10.751Z,233.43
2024-01-01T04:05:38.675Z,226.67
2024-01-01T04:08:09.269Z,226.40
2024-01-01T04:10:37.182Z,231.83
2024-01-01T04:13:05.192Z,231.40
2024-01-01T04:15:33.158Z,232.53
2024-01-01T04:18:00.967Z,237.13
2024-01-01T04:20:28.896Z,234.13
2024-01-01T04:22:56.778Z,241.50
2024-01-01T04:25:26.999Z,228.97
2024-01-01T04:27:54.724Z,229.40
2024-01-01T04:30:22.604Z,235.13
2024-01-01T04:32:50.467Z,237.83
2024-01-01T04:35:18.334Z,235.53
2024-01-01T04:37:46.151Z,242.63
2024-01-01T04:40:14.055Z,232.57
2024-01-01T04:42:43.160Z,232.20
2024-01-01T04:45:12.958Z,229.27
2024-01-01T04:47:40.818Z,236.00
2024-01-01T04:50:10.116Z,231.30
2024-01-01T04:52:38.100Z,242.27
2024-01-01T04:55:06.334Z,241.80
2024-01-01T04:57:34.095Z,242.17
2024-01-01T05:00:04.322Z,241.33
2024-01-01T05:02:32.076Z,238.30
2024-01-01T05:05:00.131Z,227.37
2024-01-01T05:07:28.373Z,233.40
2024-01-01T05:09:56.167Z,234.63
2024-01-01T05:12:23.976Z,241.87
2024-01-01T05:14:51.739Z,238.87
2024-01-01T05:17:21.615Z,237.77
2024-01-01T05:19:51.493Z,235.37
2024-01-01T05:22:19.373Z,239.83
2024-01-01T05:24:47.875Z,231.40
2024-01-01T05:27:15.740Z,231.30
2024-01-01T05:29:43.837Z,227.47
2024-01-01T05:32:11.858Z,217.07
2024-01-01T05:34:42.067Z,215.60
2024-01-01T05:37:09.997Z,221.20
2024-01-01T05:39:37.767Z,217.93
2024-01-01T05:42:05.811Z,227.00
2024-01-01T05:44:33.514Z,227.03
2024-01-01T05:47:01.474Z,222.23
2024-01-01T05:49:29.244Z,222.50
2024-01-01T05:51:57.653Z,226.80
2024-01-01T05:54:25.545Z,222.93
2024-01-01T05:56:53.321Z,221.10
2024-01-01T05:59:21.083Z,232.10
2024-01-01T06:01:49.333Z,221.20
2024-01-01T06:04:17.319Z,224.50
2024-01-01T06:06:45.113Z,227.53
2024-01-01T06:09:14.342Z,228.73
2024-01-01T06:11:42.264Z,223.77
2024-01-01T06:14:10.564Z,221.53
2024-01-01T06:16:38.403Z,228.63
2024-01-01T06:19:08.366Z,248.13
2024-01-01T06:21:36.365Z,243.83
2024-01-01T06:24:04.171Z,242.97
2024-01-01T06:26:33.281Z,260.70
2024-01-01T06:29:01.225Z,266.57
2024-01-01T06:31:35.624Z,260.53
2024-01-01T06:34:04.036Z,270.27
2024-01-01T06:36:31.810Z,272.70
2024-01-01T06:38:59.518Z,276.77
2024-01-01T06:41:27.346Z,269.60
2024-01-01T06:43:56.449Z,277.97
2024-01-01T06:46:24.197Z,293.83
2024-01-01T06:48:51.937Z,272.03
2024-01-01T06:51:19.696Z,263.97
2024-01-01T06:53:47.408Z,269.70
2024-01-01T06:56:15.255Z,264.73
2024-01-01T06:58:44.050Z,253.10
2024-01-01T07:01:13.343Z,249.70
2024-01-01T07:03:41.304Z,245.50
2024-01-01T07:06:09.100Z,241.83
2024-01-01T07:08:36.854Z,240.40
2024-01-01T07:11:04.675Z,245.93
2024-01-01T07:13:32.481Z,234.57
2024-01-01T07:16:00.290Z,232.47
2024-01-01T07:18:29.490Z,231.80
2024-01-01T07:20:57.517Z,217.37
2024-01-01T07:23:25.490Z,224.30
2024-01-01T07:25:53.205Z,222.00
2024-01-01T07:28:20.926Z,222.73
2024-01-01T07:30:48.751Z,228.27
2024-01-01T07:33:16.790Z,219.43
2024-01-01T07:35:46.092Z,221.00
2024-01-01T07:38:13.852Z,228.60
2024-01-01T07:40:42.240Z,226.80
2024-01-01T07:43:11.132Z,231.93
2024-01-01T07:45:38.883Z,231.93
2024-01-01T07:48:08.384Z,219.80
2024-01-01T07:50:36.775Z,219.70
2024-01-01T07:53:06.270Z,212.03
2024-01-01T07:55:34.035Z,214.63
2024-01-01T07:58:01.892Z,219.63
2024-01-01T08:00:29.787Z,214.70
2024-01-01T08:02:57.535Z,210.20
2024-01-01T08:05:25.424Z,219.43
2024-01-01T08:07:53.272Z,234.13
2024-01-01T08:10:22.384Z,230.87
2024-01-01T08:12:50.112Z,226.30
2024-01-01T08:15:17.862Z,225.13
2024-01-01T08:17:45.661Z,228.83
2024-01-01T08:20:13.857Z,222.93
2024-01-01T08:22:42.056Z,212.97
2024-01-01T08:25:10.527Z,220.50
2024-01-01T08:27:40.072Z,215.13
2024-01-01T08:30:08.875Z,211.53
2024-01-01T08:32:36.632Z,205.37
2024-01-01T08:35:04.734Z,210.83
2024-01-01T08:37:32.528Z,212.90
2024-01-01T08:40:00.426Z,209.60
2024-01-01T08:42:28.143Z,211.87
2024-01-01T08:44:57.260Z,226.23
2024-01-01T08:47:25.163Z,224.13
2024-01-01T08:49:52.997Z,214.70
2024-01-01T08:52:20.735Z,219.20
2024-01-01T08:54:48.552Z,218.77
2024-01-01T08:57:16.697Z,220.60
2024-01-01T08:59:43.447Z,220.80
2024-01-01T09:02:12.581Z,218.53
2024-01-01T09:04:40.391Z,217.90
2024-01-01T09:07:08.159Z,223.93
2024-01-01T09:09:38.261Z,223.90
2024-01-01T09:12:06.599Z,221.60
2024-01-01T09:14:35.515Z,220.83
2024-01-01T09:17:05.144Z,223.60
2024-01-01T09:19:34.399Z,231.60
2024-01-01T09:22:02.195Z,228.77
2024-01-01T09:24:29.918Z,233.07
2024-01-01T09:26:57.779Z,241.40
2024-01-01T09:29:25.535Z,242.60
2024-01-01T09:31:53.513Z,236.47
2024-01-01T09:34:21.294Z,240.77
2024-01-01T09:36:57.674Z,245.37
2024-01-01T09:39:31.233Z,245.27
2024-01-01T09:41:58.938Z,244.90
2024-01-01T09:44:27.495Z,241.70
2024-01-01T09:46:55.426Z,235.33
2024-01-01T09:49:25.780Z,234.50
2024-01-01T09:51:57.570Z,239.97
2024-01-01T09:54:25.407Z,238.80
2024-01-01T09:56:53.184Z,243.83
2024-01-01T09:59:35.010Z,244.20
2024-01-01T10:02:06.954Z,252.00
2024-01-01T10:04:35.631Z,243.43
2024-01-01T10:07:05.480Z,235.73
2024-01-01T10:09:34.087Z,235.53
2024-01-01T10:12:11.085Z,235.00
2024-01-01T10:14:47.588Z,232.53
2024-01-01T10:17:16.491Z,228.00
2024-01-01T10:19:53.013Z,232.50
2024-01-01T10:22:24.908Z,234.10
2024-01-01T10:24:55.580Z,239.10
2024-01-01T10:27:24.669Z,239.70
2024-01-01T10:29:52.759Z,245.23
2024-01-01T10:32:21.233Z,236.80
2024-01-01T10:34:49.632Z,235.17
2024-01-01T10:37:20.103Z,241.43
2024-01-01T10:39:49.985Z,238.17
2024-01-01T10:42:18.375Z,242.43
2024-01-01T10:44:46.158Z,246.50
2024-01-01T10:47:16.553Z,255.00
2024-01-01T10:49:52.837Z,245.03
2024-01-01T10:52:46.194Z,242.60
2024-01-01T10:55:37.727Z,247.53
2024-01-01T10:58:19.884Z,251.30
2024-01-01T11:00:57.106Z,254.03
2024-01-01T11:03:25.081Z,248.43
2024-01-01T11:05:53.012Z,249.07
2024-01-01T11:08:28.836Z,261.23
2024-01-01T11:10:58.143Z,247.40
2024-01-01T11:13:54.746Z,260.93
2024-01-01T11:16:23.462Z,258.67
2024-01-01T11:18:51.639Z,259.57
2024-01-01T11:21:33.982Z,255.90
2024-01-01T11:24:20.745Z,256.93
2024-01-01T11:26:52.388Z,263.23
2024-01-01T11:29:29.172Z,265.20
2024-01-01T11:32:03.525Z,255.40
2024-01-01T11:34:38.173Z,251.10
2024-01-01T11:37:20.856Z,253.07
2024-01-01T11:39:59.012Z,246.17
2024-01-01T11:42:28.300Z,241.43
2024-01-01T11:45:10.387Z,241.37
2024-01-01T11:47:38.943Z,241.20
2024-01-01T11:50:09.873Z,252.20
2024-01-01T11:52:38.014Z,251.70
2024-01-01T11:55:06.588Z,248.47
2024-01-01T11:57:36.839Z,262.47
2024-01-01T12:00:06.245Z,251.10
2024-01-01T12:02:35.150Z,252.03
2024-01-01T12:05:03.071Z,257.07
2024-01-01T12:07:33.143Z,249.13
2024-01-01T12:10:09.397Z,252.63
2024-01-01T12:12:39.500Z,254.73
2024-01-01T12:15:12.403Z,256.20
2024-01-01T12:17:44.970Z,262.13
2024-01-01T12:20:16.451Z,262.00
2024-01-01T12:22:44.592Z,267.03
2024-01-01T12:25:16.908Z,254.73
2024-01-01T12:27:47.138Z,261.20
2024-01-01T12:30:28.810Z,264.80
2024-01-01T12:32:56.988Z,270.90
2024-01-01T12:35:25.296Z,254.53
2024-01-01T12:37:54.002Z,247.77
2024-01-01T12:40:22.521Z,248.13
2024-01-01T12:42:51.614Z,241.43
2024-01-01T12:45:19.405Z,247.17
2024-01-01T12:47:47.226Z,247.27
2024-01-01T12:50:15.138Z,251.13
2024-01-01T12:52:42.934Z,257.40
2024-01-01T12:55:11.628Z,260.43
2024-01-01T12:57:39.856Z,250.20
2024-01-01T13:00:11.108Z,253.00
2024-01-01T13:02:38.979Z,251.53
2024-01-01T13:05:07.497Z,246.77
2024-01-01T13:07:35.308Z,251.73
2024-01-01T13:10:03.979Z,242.93
2024-01-01T13:12:31.719Z,234.00
2024-01-01T13:14:59.490Z,232.23
2024-01-01T13:17:28.700Z,231.60
2024-01-01T13:19:56.522Z,227.90
2024-01-01T13:22:26.052Z,235.83
2024-01-01T13:24:53.885Z,230.70
2024-01-01T13:27:21.686Z,237.97
2024-01-01T13:29:49.499Z,229.47
2024-01-01T13:32:17.529Z,228.97
2024-01-01T13:34:46.741Z,232.83
2024-01-01T13:37:14.565Z,236.17
2024-01-01T13:39:42.290Z,229.63
2024-01-01T13:42:11.106Z,233.33
2024-01-01T13:44:38.814Z,240.30
2024-01-01T13:47:07.166Z,239.53
2024-01-01T13:49:35.569Z,239.73
2024-01-01T13:52:04.739Z,234.10
2024-01-01T13:54:32.624Z,244.53
2024-01-01T13:57:00.362Z,238.37
2024-01-01T13:59:28.278Z,240.43
2024-01-01T14:01:56.199Z,227.80
2024-01-01T14:04:23.990Z,235.60
2024-01-01T14:06:51.753Z,226.07
2024-01-01T14:09:20.839Z,232.80
2024-01-01T14:11:49.912Z,231.87
2024-01-01T14:14:18.344Z,231.33
2024-01-01T14:16:47.108Z,238.67
2024-01-01T14:19:15.538Z,237.20
2024-01-01T14:21:43.471Z,238.73
2024-01-01T14:24:11.310Z,241.60
2024-01-01T14:26:42.585Z,239.07
2024-01-01T14:29:10.416Z,234.93
2024-01-01T14:31:38.165Z,239.13
2024-01-01T14:34:06.362Z,235.03
2024-01-01T14:36:34.211Z,233.80
2024-01-01T14:39:02.229Z,231.50
2024-01-01T14:41:32.776Z,233.20
2024-01-01T14:44:01.906Z,238.63
2024-01-01T14:46:29.696Z,232.87
2024-01-01T14:48:57.409Z,239.40
2024-01-01T14:51:25.158Z,243.47
2024-01-01T14:53:52.906Z,249.07
2024-01-01T14:56:22.380Z,248.20
2024-01-01T14:58:50.438Z,252.03
2024-01-01T15:01:23.145Z,248.20
2024-01-01T15:03:51.095Z,254.37
2024-01-01T15:06:19.932Z,267.13
2024-01-01T15:08:47.889Z,258.03
2024-01-01T15:11:15.861Z,259.87
2024-01-01T15:13:43.971Z,255.97
2024-01-01T15:16:11.729Z,258.97
2024-01-01T15:18:41.194Z,259.40
2024-01-01T15:21:10.161Z,267.00
2024-01-01T15:23:38.633Z,260.50
2024-01-01T15:26:07.433Z,267.73
2024-01-01T15:28:35.738Z,270.60
2024-01-01T15:31:03.515Z,264.90
2024-01-01T15:33:31.435Z,275.00
2024-01-01T15:36:00.574Z,267.40
2024-01-01T15:38:28.308Z,269.80
2024-01-01T15:40:56.078Z,268.70
2024-01-01T15:43:23.825Z,268.53
2024-01-01T15:45:51.792Z,272.30
2024-01-01T15:48:19.691Z,267.73
2024-01-01T15:50:53.475Z,260.60
2024-01-01T15:53:30.116Z,255.70
2024-01-01T15:55:58.165Z,249.83
2024-01-01T15:58:26.367Z,253.13
2024-01-01T16:00:54.337Z,265.60
2024-01-01T16:03:22.134Z,262.80
2024-01-01T16:05:49.951Z,262.57
2024-01-01T16:08:17.745Z,256.47
2024-01-01T16:10:47.130Z,263.03
2024-01-01T16:13:15.183Z,259.33
2024-01-01T16:15:48.309Z,258.07
2024-01-01T16:18:16.637Z,261.50
2024-01-01T16:20:44.405Z,253.23
2024-01-01T16:23:12.365Z,261.27
2024-01-01T16:25:40.341Z,258.63
2024-01-01T16:28:09.508Z,260.10
2024-01-01T16:30:37.344Z,255.17
2024-01-01T16:33:06.238Z,266.23
2024-01-01T16:35:34.193Z,257.00
2024-01-01T16:38:01.903Z,257.07
2024-01-01T16:40:29.642Z,261.43
2024-01-01T16:42:57.421Z,257.80
2024-01-01T16:45:26.644Z,265.73
2024-01-01T16:47:54.850Z,261.10
2024-01-01T16:50:22.857Z,264.40
2024-01-01T16:52:50.661Z,268.60
2024-01-01T16:55:18.628Z,268.40
2024-01-01T16:57:46.360Z,278.60
2024-01-01T17:00:15.140Z,273.17
2024-01-01T17:02:44.659Z,270.20
2024-01-01T17:05:12.711Z,261.77
2024-01-01T17:07:40.504Z,265.83
2024-01-01T17:10:08.896Z,265.50
2024-01-01T17:12:36.664Z,262.30
2024-01-01T17:15:05.285Z,260.90
2024-01-01T17:17:33.164Z,259.33
2024-01-01T17:20:02.401Z,260.53
2024-01-01T17:22:30.287Z,261.03
2024-01-01T17:24:58.033Z,257.27
2024-01-01T17:27:25.760Z,251.90
2024-01-01T17:29:54.499Z,260.73
2024-01-01T17:32:24.482Z,259.60
2024-01-01T17:34:52.454Z,249.40
2024-01-01T17:37:21.833Z,250.00
2024-01-01T17:39:49.652Z,249.30
2024-01-01T17:42:19.819Z,251.53
2024-01-01T17:44:48.049Z,248.03
2024-01-01T17:47:15.898Z,240.20
2024-01-01T17:49:43.732Z,238.37
2024-01-01T17:52:12.353Z,238.30
2024-01-01T17:54:42.481Z,247.00
2024-01-01T17:57:10.208Z,246.80
2024-01-01T17:59:37.970Z,245.77
2024-01-01T18:02:06.100Z,246.70
2024-01-01T18:04:33.881Z,255.87
2024-01-01T18:07:01.576Z,257.00
2024-01-01T18:09:29.307Z,267.57
2024-01-01T18:11:58.475Z,260.63
2024-01-01T18:14:26.255Z,264.40
2024-01-01T18:16:54.050Z,265.50
2024-01-01T18:19:21.826Z,268.00
2024-01-01T18:21:49.576Z,266.70
2024-01-01T18:24:17.536Z,274.73
2024-01-01T18:26:46.015Z,264.40
2024-01-01T18:29:15.544Z,265.47
2024-01-01T18:31:47.339Z,266.53
2024-01-01T18:34:15.300Z,261.10
2024-01-01T18:36:43.548Z,259.57
2024-01-01T18:39:11.473Z,252.50
2024-01-01T18:41:40.464Z,259.20
2024-01-01T18:44:11.241Z,258.10
2024-01-01T18:46:41.331Z,256.57
2024-01-01T18:49:09.368Z,269.03
2024-01-01T18:51:37.317Z,263.23
2024-01-01T18:54:05.108Z,260.50
2024-01-01T18:56:33.511Z,259.70
2024-01-01T18:59:01.298Z,265.90
2024-01-01T19:01:29.094Z,263.10
2024-01-01T19:04:06.269Z,267.40
2024-01-01T19:06:38.518Z,274.00
2024-01-01T19:09:06.263Z,261.70
2024-01-01T19:11:33.995Z,267.03
2024-01-01T19:14:01.747Z,263.70
2024-01-01T19:16:29.491Z,270.03
2024-01-01T19:18:58.629Z,274.37
2024-01-01T19:21:27.338Z,277.77
2024-01-01T19:23:56.315Z,269.10
2024-01-01T19:26:24.075Z,270.53
2024-01-01T19:28:51.819Z,267.87
2024-01-01T19:31:19.662Z,276.30
2024-01-01T19:33:47.557Z,276.33
2024-01-01T19:36:16.844Z,278.33
2024-01-01T19:38:44.653Z,274.73
2024-01-01T19:41:12.460Z,273.03
2024-01-01T19:43:40.391Z,271.63
2024-01-01T19:46:08.129Z,280.97
2024-01-01T19:48:36.265Z,274.10
2024-01-01T19:51:05.438Z,287.00
2024-01-01T19:53:34.993Z,276.63
2024-01-01T19:56:02.828Z,285.47
2024-01-01T19:58:31.573Z,285.13
2024-01-01T20:00:59.415Z,287.50
2024-01-01T20:03:27.238Z,281.03
2024-01-01T20:05:54.970Z,286.37
2024-01-01T20:08:30.490Z,286.90
2024-01-01T20:11:06.446Z,294.10
2024-01-01T20:13:38.181Z,285.57
2024-01-01T20:16:06.898Z,293.10
2024-01-01T20:18:36.098Z,292.87
2024-01-01T20:21:05.023Z,290.23
2024-01-01T20:23:33.172Z,297.40
2024-01-01T20:26:01.540Z,301.97
2024-01-01T20:28:30.761Z,299.00
2024-01-01T20:30:58.775Z,297.23
2024-01-01T20:33:25.818Z,296.93
2024-01-01T20:35:53.632Z,307.17
2024-01-01T20:38:21.434Z,304.93
2024-01-01T20:40:49.395Z,299.50
2024-01-01T20:43:17.111Z,298.00
2024-01-01T20:45:46.766Z,311.10
2024-01-01T20:48:14.680Z,302.60
2024-01-01T20:50:42.703Z,299.93
2024-01-01T20:53:10.735Z,301.13
2024-01-01T20:55:38.848Z,299.50
2024-01-01T20:58:06.570Z,296.10
2024-01-01T21:00:34.587Z,300.30
2024-01-01T21:03:04.098Z,307.73
2024-01-01T21:05:32.088Z,306.20
2024-01-01T21:08:01.080Z,318.60
2024-01-01T21:10:28.908Z,314.10
2024-01-01T21:12:56.778Z,302.33
2024-01-01T21:15:24.829Z,304.37
2024-01-01T21:17:53.091Z,306.40
2024-01-01T21:20:22.251Z,302.30
2024-01-01T21:22:50.039Z,302.13
2024-01-01T21:25:18.003Z,313.80
2024-01-01T21:27:45.852Z,300.43
2024-01-01T21:30:14.261Z,315.17
2024-01-01T21:32:42.077Z,301.17
2024-01-01T21:35:16.546Z,298.00
2024-01-01T21:37:45.824Z,296.00
2024-01-01T21:40:16.194Z,297.83
2024-01-01T21:42:44.137Z,293.77
2024-01-01T21:45:12.397Z,299.30
2024-01-01T21:47:40.441Z,291.60
2024-01-01T21:50:09.136Z,294.33
2024-01-01T21:52:37.461Z,302.27
2024-01-01T21:55:06.854Z,300.73
2024-01-01T21:57:34.579Z,299.97
2024-01-01T22:00:03.851Z,300.00
2024-01-01T22:02:31.685Z,284.43
2024-01-01T22:05:00.465Z,281.03
2024-01-01T22:07:29.052Z,289.13
2024-01-01T22:09:56.826Z,286.00
2024-01-01T22:12:26.063Z,287.10
2024-01-01T22:14:53.843Z,277.23
2024-01-01T22:17:21.669Z,281.93
2024-01-01T22:19:49.800Z,273.67
2024-01-01T22:22:17.684Z,273.40
2024-01-01T22:24:45.423Z,276.90
2024-01-01T22:27:14.128Z,280.33
2024-01-01T22:29:43.624Z,284.87
2024-01-01T22:32:11.420Z,282.20
2024-01-01T22:34:39.124Z,277.43
2024-01-01T22:37:06.978Z,286.30
2024-01-01T22:39:34.908Z,280.70
2024-01-01T22:42:03.060Z,278.53
2024-01-01T22:44:30.860Z,284.97
2024-01-01T22:46:59.973Z,289.53
2024-01-01T22:49:27.962Z,291.20
2024-01-01T22:51:55.665Z,295.23
2024-01-01T22:54:23.619Z,291.60
2024-01-01T22:56:51.351Z,299.23
2024-01-01T22:59:19.163Z,288.37
2024-01-01T23:01:48.083Z,287.10
2024-01-01T23:04:17.234Z,284.63
2024-01-01T23:06:45.172Z,282.20
2024-01-01T23:09:12.963Z,279.77
2024-01-01T23:11:40.868Z,286.90
2024-01-01T23:14:08.829Z,283.43
2024-01-01T23:16:36.725Z,284.63
2024-01-01T23:19:05.123Z,293.40
2024-01-01T23:21:34.520Z,281.00
2024-01-01T23:24:03.146Z,284.70
2024-01-01T23:26:31.037Z,290.03
2024-01-01T23:28:59.667Z,287.67
2024-01-01T23:31:27.703Z,293.17
2024-01-01T23:34:04.928Z,287.60
2024-01-01T23:36:42.373Z,291.83
2024-01-01T23:39:10.367Z,291.50
2024-01-01T23:41:38.194Z,303.30
2024-01-01T23:44:06.466Z,289.27
2024-01-01T23:46:34.370Z,293.50
2024-01-01T23:49:02.602Z,280.87
2024-01-01T23:51:30.390Z,293.77
2024-01-01T23:54:01.702Z,285.10
2024-01-01T23:56:30.393Z,290.43
2024-01-01T23:58:58.186Z,295.23
